Stations météo

réclame
Mon MeteoGroup
Kloevsjoehoejden, Suède (2325): Température de l'air & dewpoint: 10.12.2017 15:00:00 - 16.12.2017 15:00:00 (CET)Kloevsjoehoejden, Suède (2325): Vitesse du vent & gusts: 10.12.2017 15:00:00 - 16.12.2017 15:00:00 (CET)Kloevsjoehoejden, Suède (2325): Direction du vent: 10.12.2017 15:00:00 - 16.12.2017 15:00:00 (CET)Kloevsjoehoejden, Suède (2325): reduced air pressure: 10.12.2017 15:00:00 - 16.12.2017 15:00:00 (CET)Kloevsjoehoejden, Suède (2325): Quantités de précipitations: 10.12.2017 15:00:00 - 16.12.2017 15:00:00 (CET)
Date & Time tt [°C] td [°C] ff [km/h] ff [knt] fx [km/h] fx [knt] dd ppp [hPa] rr [mm]
16.12.2017 15:00:00 -9,7 -10,8 13 7 18 10 NW 1004,6 0,0
16.12.2017 14:00:00 -9,5 -10,4 13 7 18 10 NW 1004,0 0,0
16.12.2017 13:00:00 -8,8 -9,7 9 5 13 7 WNW 1003,5 0,0
16.12.2017 12:00:00 -8,9 -9,8 10 5 13 7 WNW 1003,2 0,0
16.12.2017 11:00:00 -9,4 -10,3 6 3 12 6 NW 1002,9 0,0
16.12.2017 10:00:00 -9,4 -10,3 8 5 13 7 NW 1002,3 0,0
16.12.2017 09:00:00 -9,8 -10,7 9 5 16 9 NNW 1001,8 0,0
16.12.2017 08:00:00 -10,1 -11,1 11 6 16 9 NNW 1001,1 0,0
16.12.2017 07:00:00 -9,6 -10,5 10 5 20 11 N 1000,3 0,0
16.12.2017 06:00:00 -8,9 -9,8 13 7 23 13 N 999,7 0,0
16.12.2017 05:00:00 -8,5 -9,3 12 7 24 13 N 999,1 0,0
16.12.2017 04:00:00 -8,3 -9,1 16 9 26 14 N 998,7 0,0
16.12.2017 03:00:00 -8,4 -9,2 16 9 27 14 N 998,0 0,2
16.12.2017 02:00:00 -8,3 -9,1 16 9 28 15 N 997,6 0,2
16.12.2017 01:00:00 -8,1 -8,9 15 8 27 15 N 997,0 0,0
16.12.2017 00:00:00 -7,9 -8,7 15 8 29 16 N 996,5 0,0
15.12.2017 23:00:00 -7,8 -8,6 14 8 27 15 N 996,1 0,0
15.12.2017 22:00:00 -7,7 -8,5 16 9 28 15 N 995,6 0,0
15.12.2017 21:00:00 -7,7 -8,5 13 7 26 14 N 995,3 0,0
15.12.2017 20:00:00 -7,8 -8,6 16 8 27 15 N 994,7 0,0
15.12.2017 19:00:00 -7,9 -8,7 15 8 26 14 N 994,3 0,0
15.12.2017 18:00:00 -7,8 -8,6 16 8 26 14 N 993,7 0,0
15.12.2017 17:00:00 -7,7 -8,5 13 7 24 13 N 993,4 0,0
15.12.2017 16:00:00 -7,6 -8,4 15 8 28 15 N 992,8 0,0
15.12.2017 15:00:00 -7,4 -8,1 15 8 28 15 N 992,3 0,0
15.12.2017 14:00:00 -7,5 -8,2 14 7 24 13 N 991,9 0,0
15.12.2017 13:00:00 -7,5 -8,2 13 7 22 12 N 991,8 0,0
15.12.2017 12:00:00 -7,6 -8,4 13 7 22 12 N 991,4 0,0
15.12.2017 11:00:00 -7,6 -8,3 14 8 23 12 NNW 991,0 0,0
15.12.2017 10:00:00 -7,6 -8,3 13 7 22 12 N 990,7 0,0
15.12.2017 09:00:00 -7,6 -8,4 12 6 25 13 N 990,2 0,0
15.12.2017 08:00:00 -7,7 -8,5 14 7 25 13 N 989,8 0,0
15.12.2017 07:00:00 -7,5 -8,2 14 7 22 12 N 989,2 0,0
15.12.2017 06:00:00 -7,5 -8,2 13 7 22 12 N 988,7 0,0
15.12.2017 05:00:00 -7,6 -8,3 14 7 25 14 N 988,3 0,0
15.12.2017 04:00:00 -7,4 -8,1 13 7 24 13 N 987,9 0,0
15.12.2017 03:00:00 -7,1 -7,8 16 8 28 15 N 987,6 0,0
15.12.2017 02:00:00 -7,3 -8,0 12 6 21 11 N 987,3 0,0
15.12.2017 01:00:00 -6,8 -7,5 10 6 19 11 N 986,8 0,0
15.12.2017 00:00:00 -6,6 -7,1 8 5 13 7 NNW 986,5 0,0
14.12.2017 23:00:00 -6,7 -7,2 6 4 13 7 NNW 986,3 0,0
14.12.2017 22:00:00 -6,5 -7,0 8 4 14 8 N 986,1 0,0
14.12.2017 21:00:00 -6,6 -7,3 10 6 13 7 N 985,8 0,0
14.12.2017 20:00:00 -5,9 -6,4 6 3 9 5 N 985,6 0,0
14.12.2017 19:00:00 -5,1 -5,5 5 3 8 5 NE 985,3 0,0
14.12.2017 18:00:00 -5,3 -5,7 4 2 8 5 N 985,1 0,0
14.12.2017 17:00:00 -5,1 -5,5 4 2 8 5 N 984,8 0,0
14.12.2017 16:00:00 -4,7 -5,1 5 3 8 5 E 984,5 0,0
14.12.2017 15:00:00 -4,5 -4,9 5 3 9 5 E 984,3 0,0
14.12.2017 14:00:00 -4,5 -4,8 5 3 9 5 E 984,1 0,0
14.12.2017 13:00:00 -4,1 -4,5 3 1 8 4 SE 984,0 0,0
14.12.2017 12:00:00 -3,9 -4,2 5 3 12 7 S 984,1 0,0
14.12.2017 11:00:00 -4,3 -4,6 7 4 12 7 SSE 984,1 0,0
14.12.2017 10:00:00 -4,1 -4,4 8 5 15 8 S 983,7 0,0
14.12.2017 09:00:00 -4,0 -4,3 9 5 23 12 S 983,3 0,0
14.12.2017 08:00:00 -3,9 -4,2 14 8 26 14 SSW 982,9 0,0
14.12.2017 07:00:00 -3,9 -4,2 13 7 26 14 S 982,7 0,0
14.12.2017 06:00:00 -3,8 -4,1 18 10 31 17 S 982,6 0,0
14.12.2017 05:00:00 -4,3 -4,6 9 5 24 13 S 982,6 0,0
14.12.2017 04:00:00 -4,5 -4,8 10 5 18 10 S 982,6 0,0
14.12.2017 03:00:00 -5,1 -5,4 13 7 19 11 S 982,8 0,0
14.12.2017 02:00:00 -5,9 -6,3 10 5 29 16 S 982,8 0,0
14.12.2017 01:00:00 -5,0 -5,3 15 8 25 14 SSW 982,6 0,0
14.12.2017 00:00:00 -5,6 -6,0 14 8 29 16 SSW 983,1 0,0
13.12.2017 23:00:00 -6,6 -7,0 14 8 39 21 S 983,4 0,0
13.12.2017 22:00:00 -5,5 -6,0 19 11 46 25 SSW 983,4 0,0
13.12.2017 21:00:00 -4,9 -6,3 29 16 51 28 SSW 983,6 0,0
13.12.2017 20:00:00 -5,6 -6,8 23 12 51 28 SW 984,2 0,0
13.12.2017 19:00:00 -6,5 -8,2 19 11 41 22 SW 984,8 0,0
13.12.2017 18:00:00 -8,4 -11,6 24 13 44 24 WSW 985,3 0,0
13.12.2017 17:00:00 -8,9 -12,7 26 14 41 22 WSW 985,5 0,0
13.12.2017 16:00:00 -8,2 -13,0 27 15 47 26 WSW 985,5 0,0
13.12.2017 15:00:00 -7,7 -12,8 29 16 46 25 WSW 985,6 0,0
13.12.2017 14:00:00 -8,0 -12,2 32 17 48 26 WSW 986,1 0,0
13.12.2017 13:00:00 -8,5 -11,8 18 10 32 17 WSW 986,7 0,0
13.12.2017 12:00:00 -8,6 -11,4 19 10 32 17 SW 987,3 0,0
13.12.2017 11:00:00 -8,6 -11,9 18 10 37 20 WSW 987,5 0,0
13.12.2017 10:00:00 -8,9 -11,6 22 12 42 23 WSW 988,0 0,0
13.12.2017 09:00:00 -9,0 -11,8 23 13 37 20 W 988,0 0,0
13.12.2017 08:00:00 -8,1 -10,9 26 14 39 21 WSW 988,0 0,0
13.12.2017 07:00:00 -8,8 -11,2 24 13 38 20 WSW 988,5 0,0
13.12.2017 06:00:00 -8,8 -11,0 27 14 40 22 WSW 988,8 0,0
13.12.2017 05:00:00 -8,6 -10,8 26 14 46 25 WSW 989,1 0,0
13.12.2017 04:00:00 -8,4 -10,3 27 14 46 25 WSW 989,3 0,0
13.12.2017 03:00:00 -8,3 -10,4 30 16 48 26 W 989,4 0,0
13.12.2017 02:00:00 -9,1 -10,9 25 14 41 22 W 989,6 0,0
13.12.2017 01:00:00 -9,0 -10,5 24 13 43 23 WSW 989,9 0,0
13.12.2017 00:00:00 -9,5 -11,0 15 8 27 14 W 990,7 0,0
12.12.2017 23:00:00 -9,5 -11,0 18 10 27 15 W 991,3 0,0
12.12.2017 22:00:00 -9,6 -11,1 16 9 24 13 W 991,5 0,0
12.12.2017 21:00:00 -9,3 -10,6 16 9 24 13 W 991,7 0,0
12.12.2017 20:00:00 -10,3 -11,6 13 7 21 12 W 992,2 0,0
12.12.2017 19:00:00 -10,9 -12,1 11 6 17 9 W 992,6 0,0
12.12.2017 18:00:00 -10,9 -11,9 11 6 19 11 W 993,2 0,0
12.12.2017 17:00:00 -10,4 -11,6 12 7 18 10 WNW 993,4 0,0
12.12.2017 16:00:00 -10,6 -11,6 13 7 22 12 NW 993,5 0,0
12.12.2017 15:00:00 -10,1 -11,0 12 7 19 10 NW 993,6 0,0
12.12.2017 14:00:00 -10,6 -11,6 10 5 14 8 NNW 993,9 0,0
12.12.2017 13:00:00 -8,8 -9,6 10 5 21 11 NNW 994,0 0,0
12.12.2017 12:00:00 -9,1 -10,0 13 7 22 12 NNW 994,7 0,0
12.12.2017 11:00:00 -9,3 -10,2 13 7 23 13 NNW 995,1 0,0
12.12.2017 10:00:00 -9,9 -10,7 11 6 20 11 NNW 995,6 0,0
12.12.2017 09:00:00 -10,1 -11,1 11 6 18 10 NNW 995,8 0,0
12.12.2017 08:00:00 -9,3 -10,1 10 5 19 10 NNW 996,3 0,0
12.12.2017 07:00:00 -9,0 -9,9 9 5 15 8 N 996,3 0,0
12.12.2017 06:00:00 -8,8 -9,7 10 5 15 8 NNW 996,5 0,0
12.12.2017 05:00:00 -9,0 -9,9 11 6 16 8 NNW 996,8 0,0
12.12.2017 04:00:00 -9,2 -10,1 9 5 14 7 N 997,1 0,0
12.12.2017 03:00:00 -8,8 -9,5 5 3 7 4 NNW 997,8 0,0
12.12.2017 02:00:00 -9,0 -9,9 5 3 8 5 ESE 998,0 0,0
12.12.2017 01:00:00 -8,1 -8,8 6 3 9 5 E 998,1 0,0
12.12.2017 00:00:00 -8,8 -9,7 7 4 10 5 SE 998,2 0,0
11.12.2017 23:00:00 -8,4 -9,2 8 5 11 6 SSE 998,5 0,0
11.12.2017 22:00:00 -7,8 -8,6 8 4 12 7 S 998,5 0,0
11.12.2017 21:00:00 -7,6 -8,4 6 4 13 7 S 998,7 0,0
11.12.2017 20:00:00 -7,4 -8,1 8 4 14 8 S 998,6 0,0
11.12.2017 19:00:00 -7,0 -7,7 9 5 15 8 S 998,5 0,0
11.12.2017 18:00:00 -7,0 -7,7 7 4 15 8 S 998,1 0,0
11.12.2017 17:00:00 -7,1 -7,8 9 5 18 10 SSW 997,8 0,0
11.12.2017 16:00:00 -7,5 -8,2 12 6 22 12 S 997,6 0,0
11.12.2017 15:00:00 -8,3 -9,0 10 6 16 9 SSW 997,2 0,0
11.12.2017 14:00:00 -8,2 -9,0 8 4 13 7 S 996,4 0,0
11.12.2017 13:00:00 -7,3 -8,1 9 5 17 9 S 996,2 0,0
11.12.2017 12:00:00 -7,1 -7,9 9 5 13 7 S 996,0 0,0
11.12.2017 11:00:00 -7,4 -8,2 8 4 11 6 S 995,7 0,0
11.12.2017 10:00:00 -7,3 -8,0 8 5 14 7 S 995,2 0,0
11.12.2017 09:00:00 -7,2 -7,9 7 4 16 8 S 994,8 0,0
11.12.2017 08:00:00 -7,3 -8,0 8 4 15 8 S 994,2 0,0
11.12.2017 07:00:00 -7,4 -8,1 8 5 14 7 S 993,4 0,0
11.12.2017 06:00:00 -7,1 -7,8 9 5 17 9 S 992,6 0,0
11.12.2017 05:00:00 -7,2 -7,9 10 5 16 9 S 991,8 0,4
11.12.2017 04:00:00 -7,3 -8,0 8 4 16 8 S 991,3 0,0
11.12.2017 03:00:00 -7,5 -8,2 8 5 18 10 S 990,9 0,0
11.12.2017 02:00:00 -7,6 -8,3 7 4 14 8 SSW 990,4 0,0
11.12.2017 01:00:00 -7,8 -8,5 7 4 12 6 S 989,9 0,0
11.12.2017 00:00:00 -8,0 -8,8 7 4 17 9 S 989,5 0,0
10.12.2017 23:00:00 -7,5 -8,3 8 4 19 11 SSW 988,9 0,0
10.12.2017 22:00:00 -7,5 -8,2 9 5 17 9 SSW 988,6 0,0
10.12.2017 21:00:00 -8,0 -8,7 11 6 23 12 SSW 988,1 0,0
10.12.2017 20:00:00 -9,0 -9,9 10 5 19 10 S 987,8 0,0
10.12.2017 19:00:00 -8,1 -8,9 11 6 17 9 S 987,3 0,0
10.12.2017 18:00:00 -7,6 -8,2 10 6 15 8 S 986,9 0,0
10.12.2017 17:00:00 -7,5 -8,5 11 6 16 8 S 986,5 0,0
10.12.2017 16:00:00 -7,9 -8,8 11 6 15 8 S 986,2 0,0
10.12.2017 15:00:00 -8,2 -9,0 10 6 16 9 S 986,3 0,0

tt = Température de l'air
td = dewpoint
ff = Vitesse du vent
fx = gusts
dd = Direction du vent
ppp = reduced air pressure
rr = Quantités de précipitations

stations d'obs. à proximité